createdAt,value
2018-11-13T00:02:32.353Z,6.30
2018-11-13T00:07:36.877Z,6.30
2018-11-13T00:12:41.940Z,6.30
2018-11-13T00:17:52.634Z,6.30
2018-11-13T00:22:57.833Z,6.10
2018-11-13T00:28:02.425Z,6.20
2018-11-13T00:33:06.938Z,6.10
2018-11-13T00:38:11.383Z,6.10
2018-11-13T00:43:15.892Z,6.00
2018-11-13T00:48:20.340Z,6.00
2018-11-13T00:53:25.278Z,6.00
2018-11-13T00:58:30.757Z,5.80
2018-11-13T01:03:41.636Z,5.70
2018-11-13T01:08:45.952Z,5.70
2018-11-13T01:13:50.468Z,5.80
2018-11-13T01:18:55.088Z,5.80
2018-11-13T01:24:00.126Z,5.80
2018-11-13T01:29:05.565Z,5.60
2018-11-13T01:34:09.983Z,5.70
2018-11-13T01:39:14.646Z,5.70
2018-11-13T01:44:18.929Z,5.70
2018-11-13T01:49:24.690Z,5.70
2018-11-13T01:54:29.284Z,5.70
2018-11-13T01:59:33.936Z,5.80
2018-11-13T02:04:38.339Z,5.60
2018-11-13T02:09:42.803Z,5.40
2018-11-13T02:14:47.527Z,5.30
2018-11-13T02:19:52.499Z,5.60
2018-11-13T02:24:57.121Z,5.90
2018-11-13T02:30:01.694Z,5.90
2018-11-13T02:35:07.147Z,5.80
2018-11-13T02:40:11.908Z,5.60
2018-11-13T02:45:17.740Z,5.80
2018-11-13T02:50:22.489Z,6.10
2018-11-13T02:55:27.007Z,6.10
2018-11-13T03:00:43.805Z,6.20
2018-11-13T03:05:56.859Z,6.20
2018-11-13T03:11:01.487Z,6.20
2018-11-13T03:16:06.195Z,6.10
2018-11-13T03:21:10.900Z,6.40
2018-11-13T03:26:15.657Z,6.40
2018-11-13T03:31:20.149Z,6.50
2018-11-13T03:36:24.636Z,6.50
2018-11-13T03:41:29.654Z,6.50
2018-11-13T03:46:34.072Z,6.20
2018-11-13T03:51:38.733Z,6.10
2018-11-13T03:56:43.264Z,6.00
2018-11-13T04:01:47.770Z,6.20
2018-11-13T04:06:52.941Z,6.20
2018-11-13T04:11:57.459Z,6.00
2018-11-13T04:17:01.922Z,5.90
2018-11-13T04:22:07.402Z,5.80
2018-11-13T04:27:11.798Z,5.80
2018-11-13T04:32:16.383Z,5.90
2018-11-13T04:37:20.853Z,5.90
2018-11-13T04:42:25.330Z,5.90
2018-11-13T04:47:29.922Z,5.80
2018-11-13T04:52:34.484Z,5.70
2018-11-13T04:57:39.454Z,5.70
2018-11-13T05:02:44.827Z,5.70
2018-11-13T05:07:51.417Z,5.70
2018-11-13T05:12:56.063Z,5.80
2018-11-13T05:18:01.062Z,5.90
2018-11-13T05:23:06.268Z,5.80
2018-11-13T05:28:10.871Z,5.90
2018-11-13T05:33:15.866Z,5.90
2018-11-13T05:38:20.371Z,5.90
2018-11-13T05:43:24.780Z,5.90
2018-11-13T05:48:29.269Z,6.00
2018-11-13T05:53:34.862Z,6.10
2018-11-13T05:58:39.543Z,6.20
2018-11-13T06:03:43.864Z,6.20
2018-11-13T06:08:48.384Z,6.30
2018-11-13T06:13:53.090Z,6.50
2018-11-13T06:18:57.341Z,6.60
2018-11-13T06:24:01.749Z,6.60
2018-11-13T06:29:06.869Z,6.70
2018-11-13T06:34:11.162Z,6.70
2018-11-13T06:39:15.588Z,6.70
2018-11-13T06:44:19.817Z,6.70
2018-11-13T06:49:25.813Z,6.70
2018-11-13T06:55:18.544Z,6.70
2018-11-13T07:00:23.778Z,6.80
2018-11-13T07:05:28.732Z,6.90
2018-11-13T07:10:33.273Z,7.10
2018-11-13T07:15:38.748Z,7.20
2018-11-13T07:20:43.190Z,7.40
2018-11-13T07:25:48.288Z,7.40
2018-11-13T07:30:52.884Z,7.30
2018-11-13T07:35:57.371Z,7.20
2018-11-13T07:41:08.253Z,7.20
2018-11-13T07:46:12.657Z,7.30
2018-11-13T07:51:17.306Z,7.30
2018-11-13T07:56:21.698Z,7.40
2018-11-13T08:01:25.924Z,7.50
2018-11-13T08:06:30.906Z,7.70
2018-11-13T08:11:35.679Z,7.80
2018-11-13T08:16:40.018Z,8.10
2018-11-13T08:21:44.529Z,8.30
2018-11-13T08:26:49.225Z,8.30
2018-11-13T08:31:54.867Z,8.50
2018-11-13T08:36:59.407Z,8.70
2018-11-13T08:42:04.309Z,8.80
2018-11-13T08:47:09.102Z,8.60
2018-11-13T08:52:13.478Z,8.30
2018-11-13T08:57:17.950Z,8.50
2018-11-13T09:02:22.904Z,8.90
2018-11-13T09:07:27.628Z,9.20
2018-11-13T09:12:33.933Z,9.30
2018-11-13T09:17:38.578Z,9.40
2018-11-13T09:22:43.017Z,9.30
2018-11-13T09:27:47.356Z,9.40
2018-11-13T09:37:57.148Z,9.50
2018-11-13T09:43:02.412Z,9.50
2018-11-13T09:48:07.038Z,9.50
2018-11-13T09:53:12.033Z,9.50
2018-11-13T09:58:16.615Z,9.50
2018-11-13T10:03:22.894Z,9.50
2018-11-13T10:08:26.658Z,9.50
2018-11-13T10:13:30.781Z,9.60
2018-11-13T10:18:34.971Z,9.50
2018-11-13T10:23:40.634Z,9.60
2018-11-13T10:28:45.165Z,9.70
2018-11-13T10:33:49.360Z,9.80
2018-11-13T10:38:54.637Z,9.80
2018-11-13T10:44:06.386Z,9.70
2018-11-13T10:49:11.188Z,9.90
2018-11-13T10:54:16.146Z,9.80
2018-11-13T10:59:20.541Z,10.00
2018-11-13T11:04:30.080Z,9.90
2018-11-13T11:09:34.364Z,10.10
2018-11-13T11:14:38.797Z,10.20
2018-11-13T11:19:43.824Z,10.30
2018-11-13T11:24:48.846Z,10.40
2018-11-13T11:29:53.940Z,10.40
2018-11-13T11:34:58.981Z,10.30
2018-11-13T11:40:03.503Z,10.30
2018-11-13T11:45:16.809Z,10.30
2018-11-13T11:50:22.009Z,10.40
2018-11-13T11:55:26.699Z,10.50
2018-11-13T12:00:32.594Z,10.50
2018-11-13T12:05:37.155Z,10.60
2018-11-13T12:10:41.750Z,10.70
2018-11-13T12:15:46.129Z,10.70
2018-11-13T12:20:51.153Z,10.90
2018-11-13T12:25:56.471Z,10.90
2018-11-13T12:31:00.734Z,11.10
2018-11-13T12:36:05.555Z,11.30
2018-11-13T12:41:10.156Z,11.20
2018-11-13T12:46:15.616Z,11.10
2018-11-13T12:51:25.253Z,11.10
2018-11-13T12:56:30.374Z,11.10
2018-11-13T13:01:34.837Z,11.10
2018-11-13T13:06:39.863Z,10.90
2018-11-13T13:11:45.024Z,10.90
2018-11-13T13:16:49.977Z,10.90
2018-11-13T13:21:54.523Z,10.90
2018-11-13T13:26:58.982Z,11.00
2018-11-13T13:32:03.520Z,11.10
2018-11-13T13:37:08.139Z,11.20
2018-11-13T13:42:13.186Z,11.20
2018-11-13T13:47:18.194Z,11.10
2018-11-13T13:52:22.971Z,11.00
2018-11-13T13:57:27.297Z,11.00
2018-11-13T14:02:31.796Z,10.90
2018-11-13T14:07:37.190Z,10.70
2018-11-13T14:12:41.495Z,10.60
2018-11-13T14:17:46.115Z,10.60
2018-11-13T14:22:51.642Z,10.60
2018-11-13T14:27:56.550Z,10.50
2018-11-13T14:33:02.250Z,10.40
2018-11-13T14:38:06.745Z,10.40
2018-11-13T14:43:11.363Z,10.40
2018-11-13T14:48:15.913Z,10.40
2018-11-13T14:53:20.995Z,10.40
2018-11-13T14:58:25.213Z,10.30
2018-11-13T15:03:49.205Z,10.40
2018-11-13T15:08:53.845Z,10.30
2018-11-13T15:14:09.347Z,10.40
2018-11-13T15:19:14.840Z,10.30
2018-11-13T15:24:19.663Z,10.20
2018-11-13T15:29:24.153Z,10.10
2018-11-13T15:34:28.633Z,10.00
2018-11-13T15:39:33.151Z,9.90
2018-11-13T15:44:37.504Z,9.60
2018-11-13T15:49:41.809Z,9.50
2018-11-13T15:54:46.673Z,9.20
2018-11-13T15:59:51.380Z,9.10
2018-11-13T16:04:56.577Z,9.10
2018-11-13T16:10:01.379Z,9.00
2018-11-13T16:15:06.651Z,9.00
2018-11-13T16:20:12.003Z,9.00
2018-11-13T16:25:16.417Z,8.70
2018-11-13T16:30:22.161Z,8.60
2018-11-13T16:35:28.658Z,8.50
2018-11-13T16:40:33.865Z,8.40
2018-11-13T16:45:38.176Z,8.50
2018-11-13T16:50:43.806Z,8.50
2018-11-13T16:55:53.995Z,8.40
2018-11-13T17:00:59.354Z,8.30
2018-11-13T17:06:04.498Z,8.30
2018-11-13T17:11:10.283Z,8.30
2018-11-13T17:16:15.394Z,8.30
2018-11-13T17:21:19.936Z,8.10
2018-11-13T17:26:24.281Z,7.90
2018-11-13T17:31:29.051Z,7.70
2018-11-13T17:36:39.736Z,7.40
2018-11-13T17:41:44.341Z,7.30
2018-11-13T17:46:48.904Z,7.30
2018-11-13T17:51:53.444Z,7.20
2018-11-13T17:56:57.923Z,6.90
2018-11-13T18:02:02.513Z,6.60
2018-11-13T18:07:07.642Z,6.40
2018-11-13T18:12:12.707Z,6.70
2018-11-13T18:17:17.534Z,6.90
2018-11-13T18:22:21.957Z,6.90
2018-11-13T18:27:26.310Z,6.70
2018-11-13T18:32:31.351Z,6.60
2018-11-13T18:37:35.771Z,6.60
2018-11-13T18:42:41.371Z,6.70
2018-11-13T18:47:45.869Z,6.80
2018-11-13T18:52:53.903Z,7.00
2018-11-13T18:57:59.655Z,7.00
2018-11-13T19:03:05.224Z,6.90
2018-11-13T19:08:10.193Z,6.80
2018-11-13T19:13:19.075Z,6.80
2018-11-13T19:18:25.103Z,7.00
2018-11-13T19:23:30.360Z,7.00
2018-11-13T19:28:34.974Z,6.90
2018-11-13T19:33:40.366Z,6.80
2018-11-13T19:38:44.987Z,6.80
2018-11-13T19:43:50.327Z,6.60
2018-11-13T19:48:54.997Z,6.30
2018-11-13T19:54:00.300Z,6.20
2018-11-13T19:59:05.394Z,6.10
2018-11-13T20:04:11.520Z,6.10
2018-11-13T20:09:17.038Z,6.00
2018-11-13T20:14:21.572Z,5.80
2018-11-13T20:19:26.260Z,5.60
2018-11-13T20:24:31.024Z,5.50
2018-11-13T20:29:35.854Z,5.30
2018-11-13T20:34:40.616Z,4.90
2018-11-13T20:39:45.822Z,4.70
2018-11-13T20:44:51.285Z,4.50
2018-11-13T20:49:55.824Z,4.40
2018-11-13T20:55:01.668Z,4.40
2018-11-13T21:00:13.538Z,4.20
2018-11-13T21:05:18.344Z,4.10
2018-11-13T21:10:27.562Z,4.10
2018-11-13T21:15:32.203Z,4.10
2018-11-13T21:20:37.116Z,4.20
2018-11-13T21:25:41.947Z,4.30
2018-11-13T21:30:46.934Z,4.20
2018-11-13T21:35:51.776Z,4.20
2018-11-13T21:40:56.712Z,4.20
2018-11-13T21:46:02.453Z,4.00
2018-11-13T21:51:07.825Z,4.00
2018-11-13T21:56:12.614Z,4.20
2018-11-13T22:01:18.108Z,4.20
2018-11-13T22:06:22.932Z,4.20
2018-11-13T22:11:28.532Z,4.30
2018-11-13T22:16:33.149Z,4.50
2018-11-13T22:21:38.229Z,4.70
2018-11-13T22:26:42.693Z,4.70
2018-11-13T22:31:47.649Z,4.80
2018-11-13T22:36:52.590Z,4.50
2018-11-13T22:41:57.011Z,3.90
2018-11-13T22:47:01.851Z,3.70
2018-11-13T22:52:06.709Z,3.50
2018-11-13T22:57:11.580Z,3.50
2018-11-13T23:02:18.598Z,3.50
2018-11-13T23:07:22.970Z,3.40
2018-11-13T23:12:27.354Z,3.40
2018-11-13T23:17:32.903Z,3.40
2018-11-13T23:22:37.316Z,3.30
2018-11-13T23:27:42.350Z,3.50
2018-11-13T23:32:46.952Z,3.40
2018-11-13T23:37:53.778Z,3.40
2018-11-13T23:42:58.569Z,3.40
2018-11-13T23:48:04.249Z,3.60
2018-11-13T23:53:09.333Z,3.60
2018-11-13T23:58:14.311Z,3.50
